Time;durP1;ratioP1;P1;durP2;ratioP2;P2;SDS_P1;SDS_P2;PMS_P1;PMS_P2;Temp;Humidity;BMP_temperature;BMP_pressure;BME280_temperature;BME280_humidity;BME280_pressure;Samples;Min_cycle;Max_cycle;Signal;HPM_P1;HPM_P2
2023/09/20 00:01:55;;;;;;;1.23;0.80;;;;;;;17.55;66.29;98736.53;5158646;27;41581;-81
2023/09/20 00:04:22;;;;;;;1.57;1.00;;;;;;;17.46;66.63;98712.41;5175945;27;41429;-81
2023/09/20 00:06:51;;;;;;;0.90;0.90;;;;;;;17.56;66.19;98723.94;5175974;27;39169;-82
2023/09/20 00:09:18;;;;;;;1.10;0.83;;;;;;;17.54;66.42;98721.44;5158703;27;40250;-81
2023/09/20 00:11:46;;;;;;;1.83;0.80;;;;;;;17.59;66.14;98727.19;5175850;27;43135;-81
2023/09/20 00:14:16;;;;;;;1.57;0.90;;;;;;;17.49;66.14;98734.41;5177489;27;42935;-81
2023/09/20 00:16:44;;;;;;;1.63;1.20;;;;;;;17.50;66.29;98735.25;5159445;27;40018;-81
2023/09/20 00:19:11;;;;;;;1.07;0.97;;;;;;;17.39;66.34;98725.53;5177285;27;42458;-81
2023/09/20 00:21:39;;;;;;;1.50;1.10;;;;;;;17.37;67.07;98722.16;5176907;27;42649;-81
2023/09/20 00:24:07;;;;;;;0.80;0.80;;;;;;;17.22;66.90;98710.19;5177310;27;42257;-81
2023/09/20 00:26:34;;;;;;;1.90;1.07;;;;;;;17.15;67.26;98698.34;5160384;27;40230;-81
2023/09/20 00:29:04;;;;;;;1.10;0.77;;;;;;;17.12;67.29;98704.00;5178384;27;41798;-81
2023/09/20 00:31:34;;;;;;;0.80;0.70;;;;;;;17.14;67.22;98707.38;5160246;27;41692;-81
2023/09/20 00:34:03;;;;;;;1.23;1.07;;;;;;;17.08;67.72;98707.91;5160903;27;42316;-81
2023/09/20 00:36:31;;;;;;;0.80;0.70;;;;;;;17.03;67.35;98702.16;5178169;27;38861;-82
2023/09/20 00:39:00;;;;;;;1.00;0.90;;;;;;;17.05;67.69;98713.56;5178811;27;41445;-81
2023/09/20 00:41:28;;;;;;;1.23;1.10;;;;;;;16.98;67.78;98715.94;5177667;27;43033;-82
2023/09/20 00:43:55;;;;;;;2.87;0.80;;;;;;;16.81;68.19;98688.03;5158156;27;41370;-81
2023/09/20 00:46:24;;;;;;;2.00;1.00;;;;;;;16.81;68.45;98690.72;5158584;27;39960;-82
2023/09/20 00:48:55;;;;;;;0.90;0.90;;;;;;;16.92;68.68;98702.28;5176027;27;42493;-82
2023/09/20 00:51:23;;;;;;;1.60;1.03;;;;;;;16.88;68.57;98710.59;5158506;27;41566;-81
2023/09/20 00:53:52;;;;;;;1.00;1.00;;;;;;;16.86;68.97;98698.34;5175813;27;42728;-81
2023/09/20 00:56:20;;;;;;;2.03;1.10;;;;;;;16.81;68.95;98688.03;5158066;27;39046;-81
2023/09/20 00:58:52;;;;;;;1.00;0.90;;;;;;;16.81;68.77;98696.06;5174896;27;40472;-81
2023/09/20 01:01:20;;;;;;;2.13;0.90;;;;;;;16.83;68.72;98696.78;5174832;27;42614;-82
2023/09/20 01:03:48;;;;;;;0.80;0.80;;;;;;;16.79;68.78;98697.22;5175935;27;42372;-81
2023/09/20 01:06:19;;;;;;;0.87;0.87;;;;;;;16.68;68.75;98676.78;5157450;27;39120;-82
2023/09/20 01:08:48;;;;;;;0.90;0.80;;;;;;;16.77;69.08;98691.16;5158135;27;41161;-81
2023/09/20 01:11:16;;;;;;;1.57;0.93;;;;;;;16.74;69.39;98696.78;5174921;27;42899;-80
2023/09/20 01:13:44;;;;;;;1.27;1.13;;;;;;;16.70;69.05;98690.84;5158846;27;41918;-80
2023/09/20 01:16:14;;;;;;;1.20;0.67;;;;;;;16.69;69.77;98691.81;5158546;27;39030;-80
2023/09/20 01:18:43;;;;;;;1.57;1.00;;;;;;;16.67;69.94;98688.47;5158968;27;41455;-80
2023/09/20 01:21:11;;;;;;;0.73;0.73;;;;;;;16.67;69.93;98690.31;5158541;27;41705;-81
2023/09/20 01:23:42;;;;;;;1.10;1.00;;;;;;;16.64;70.29;98688.75;5176385;27;42394;-80
2023/09/20 01:26:11;;;;;;;2.97;0.90;;;;;;;16.63;70.31;98684.38;5174687;27;40041;-80
2023/09/20 01:28:38;;;;;;;2.03;0.80;;;;;;;16.63;70.41;98689.72;5156875;27;40603;-81
2023/09/20 01:31:07;;;;;;;1.00;0.90;;;;;;;16.63;70.22;98695.06;5157177;27;41496;-82
2023/09/20 01:33:35;;;;;;;1.00;1.00;;;;;;;16.61;69.44;98688.97;5178278;27;41302;-80
2023/09/20 01:36:05;;;;;;;1.37;0.80;;;;;;;16.51;69.45;98669.41;5182997;27;39100;-80
2023/09/20 01:38:33;;;;;;;1.30;0.90;;;;;;;16.50;69.27;98670.38;5177552;27;41734;-81
2023/09/20 01:41:03;;;;;;;1.00;0.90;;;;;;;16.50;69.07;98684.59;5157478;27;42991;-80
2023/09/20 01:43:31;;;;;;;1.47;0.80;;;;;;;16.36;69.28;98660.91;5174877;27;43744;-81
2023/09/20 01:45:59;;;;;;;0.80;0.80;;;;;;;16.45;69.08;98681.47;5175095;27;39949;-80
2023/09/20 01:48:27;;;;;;;1.33;1.00;;;;;;;16.40;69.89;98670.38;5157344;27;40595;-81
2023/09/20 01:50:55;;;;;;;1.03;0.83;;;;;;;16.33;70.49;98655.00;5157138;27;42015;-80
2023/09/20 01:53:25;;;;;;;1.30;0.80;;;;;;;16.26;70.54;98643.19;5175692;27;42210;-81
2023/09/20 01:55:53;;;;;;;2.33;1.10;;;;;;;16.24;71.12;98645.13;5175258;27;39621;-82
2023/09/20 01:58:23;;;;;;;0.80;0.80;;;;;;;16.23;70.79;98644.28;5156423;27;40581;-80
2023/09/20 02:00:51;;;;;;;1.13;1.03;;;;;;;16.29;70.88;98654.44;5156697;27;43145;-81
2023/09/20 02:03:18;;;;;;;1.47;1.00;;;;;;;16.27;70.86;98655.56;5174296;27;42213;-81
2023/09/20 02:05:47;;;;;;;1.17;0.90;;;;;;;16.24;70.98;98661.16;5156407;27;39358;-81
2023/09/20 02:08:16;;;;;;;1.10;0.90;;;;;;;16.09;71.02;98636.66;5157264;27;40990;-80
2023/09/20 02:10:44;;;;;;;1.57;1.20;;;;;;;16.23;71.08;98654.97;5174422;27;43061;-82
2023/09/20 02:13:15;;;;;;;1.07;0.87;;;;;;;16.19;71.15;98655.41;5157453;27;41198;-81
2023/09/20 02:15:44;;;;;;;1.10;0.80;;;;;;;16.19;71.51;98658.91;5157773;27;40174;-81
2023/09/20 02:18:12;;;;;;;1.20;1.10;;;;;;;16.20;71.45;98659.75;5175454;27;42010;-82
2023/09/20 02:20:40;;;;;;;1.40;0.90;;;;;;;16.20;71.01;98670.44;5175012;27;42723;-80
2023/09/20 02:23:12;;;;;;;0.93;0.80;;;;;;;16.20;70.84;98681.13;5158458;27;40994;-81
2023/09/20 02:25:40;;;;;;;0.90;0.90;;;;;;;16.21;71.41;98680.97;5173283;27;40135;-80
2023/09/20 02:28:10;;;;;;;1.20;0.90;;;;;;;16.21;71.12;98677.47;5175375;27;41914;-80
2023/09/20 02:30:38;;;;;;;1.50;0.90;;;;;;;16.20;70.89;98673.09;5175062;27;43557;-81
2023/09/20 02:33:10;;;;;;;0.80;0.80;;;;;;;16.20;71.45;98670.44;5157952;27;41402;-79
2023/09/20 02:35:39;;;;;;;0.60;0.60;;;;;;;16.19;70.71;98680.28;5157844;27;39370;-80
2023/09/20 02:38:07;;;;;;;1.80;1.23;;;;;;;16.17;71.11;98672.41;5157907;27;42085;-80
2023/09/20 02:40:35;;;;;;;1.27;0.90;;;;;;;16.16;71.70;98670.72;5175103;27;42958;-80
2023/09/20 02:43:04;;;;;;;2.43;1.07;;;;;;;16.17;72.12;98671.56;5157989;27;42176;-80
2023/09/20 02:45:33;;;;;;;2.03;1.20;;;;;;;16.15;72.33;98668.19;5175054;27;40024;-80
2023/09/20 02:48:04;;;;;;;1.10;1.00;;;;;;;16.09;72.15;98656.19;5157848;27;41840;-81
2023/09/20 02:50:33;;;;;;;1.20;1.10;;;;;;;16.16;72.34;98665.38;5157737;27;41700;-80
2023/09/20 02:53:01;;;;;;;1.57;1.23;;;;;;;16.17;72.58;98664.41;5175048;27;43063;-80
2023/09/20 02:55:31;;;;;;;1.27;1.17;;;;;;;16.19;73.40;98664.28;5175054;27;38950;-80
2023/09/20 02:58:00;;;;;;;3.13;1.20;;;;;;;16.20;73.62;98657.06;5171951;27;41629;-81
2023/09/20 03:00:31;;;;;;;1.73;1.10;;;;;;;16.09;73.85;98636.66;5157267;27;41775;-81
2023/09/20 03:03:01;;;;;;;1.20;1.10;;;;;;;16.16;73.25;98654.69;5157970;27;41316;-81
2023/09/20 03:05:31;;;;;;;1.63;1.00;;;;;;;16.21;72.91;98645.41;5173866;27;39546;-81
2023/09/20 03:08:01;;;;;;;1.67;1.00;;;;;;;16.21;73.60;98650.75;5155982;27;40852;-81
2023/09/20 03:10:29;;;;;;;1.20;0.90;;;;;;;16.20;73.15;98654.41;5156017;27;41800;-82
2023/09/20 03:12:57;;;;;;;0.97;0.97;;;;;;;16.11;73.32;98635.53;5156763;27;42294;-82
2023/09/20 03:15:28;;;;;;;1.70;1.10;;;;;;;16.05;73.64;98628.09;5158189;27;39059;-81
2023/09/20 03:17:59;;;;;;;1.07;0.97;;;;;;;16.17;73.21;98650.19;5160837;27;42012;-80
2023/09/20 03:20:26;;;;;;;2.03;1.00;;;;;;;16.21;73.23;98656.94;5177971;27;41654;-81
2023/09/20 03:23:04;;;;;;;1.73;1.00;;;;;;;16.20;72.89;98644.56;5175215;27;42388;-81
2023/09/20 03:25:36;;;;;;;0.87;0.83;;;;;;;16.07;72.80;98623.41;5176272;27;40101;-81
2023/09/20 03:28:07;;;;;;;1.27;1.00;;;;;;;16.09;73.11;98634.81;5178387;27;41402;-81
2023/09/20 03:30:37;;;;;;;0.87;0.87;;;;;;;16.19;73.07;98647.38;5178239;27;42514;-81
2023/09/20 03:33:06;;;;;;;1.47;1.00;;;;;;;16.19;72.44;98652.72;5160485;27;41114;-82
2023/09/20 03:35:35;;;;;;;1.37;1.13;;;;;;;16.05;72.54;98636.09;5177865;27;40656;-81
2023/09/20 03:38:04;;;;;;;2.30;1.20;;;;;;;16.13;73.01;98657.63;5160612;27;40470;-81
2023/09/20 03:40:32;;;;;;;1.30;1.00;;;;;;;16.13;72.92;98654.94;5177786;27;43754;-81
2023/09/20 03:43:03;;;;;;;1.30;0.90;;;;;;;16.08;73.19;98646.47;5174843;27;42147;-82
2023/09/20 03:45:32;;;;;;;0.90;0.90;;;;;;;16.11;72.80;98651.56;5160177;27;38545;-81
2023/09/20 03:48:01;;;;;;;0.93;0.90;;;;;;;16.12;72.64;98647.91;5160469;27;40748;-81
2023/09/20 03:50:29;;;;;;;1.93;1.03;;;;;;;16.07;72.49;98644.78;5159742;27;42893;-81
2023/09/20 03:52:57;;;;;;;1.63;1.00;;;;;;;16.11;72.63;98648.91;5177914;27;41930;-80
2023/09/20 03:55:27;;;;;;;1.20;1.07;;;;;;;16.12;73.10;98650.59;5178028;27;40139;-81
2023/09/20 03:57:54;;;;;;;1.73;1.07;;;;;;;15.99;73.05;98625.09;5177425;27;43382;-81
2023/09/20 04:00:28;;;;;;;2.63;1.00;;;;;;;16.11;72.55;98642.69;5175161;27;42729;-81
2023/09/20 04:02:56;;;;;;;1.23;0.93;;;;;;;16.09;72.78;98634.81;5159982;27;41427;-81
2023/09/20 04:05:24;;;;;;;1.40;1.00;;;;;;;16.08;72.76;98638.47;5177156;27;39154;-81
2023/09/20 04:07:52;;;;;;;1.17;1.03;;;;;;;16.08;72.25;98641.16;5160442;27;40652;-81
2023/09/20 04:10:19;;;;;;;1.10;1.00;;;;;;;16.00;72.61;98622.28;5159637;27;41488;-81
2023/09/20 04:12:49;;;;;;;1.80;1.00;;;;;;;16.06;72.82;98629.78;5159886;27;41300;-81
2023/09/20 04:15:17;;;;;;;1.10;1.00;;;;;;;15.95;72.47;98613.81;5176858;27;39754;-81
2023/09/20 04:17:48;;;;;;;1.00;0.73;;;;;;;15.84;72.54;98605.91;5177471;27;41725;-81
2023/09/20 04:20:20;;;;;;;1.20;0.90;;;;;;;16.03;72.38;98635.38;5159716;27;42188;-82
2023/09/20 04:22:49;;;;;;;1.27;1.00;;;;;;;16.01;72.39;98633.81;5173924;27;42299;-81
2023/09/20 04:25:17;;;;;;;1.30;0.90;;;;;;;15.99;72.12;98631.28;5159712;27;40017;-81
2023/09/20 04:27:46;;;;;;;0.83;0.83;;;;;;;15.94;72.14;98622.84;5176473;27;41752;-81
2023/09/20 04:30:18;;;;;;;0.80;0.80;;;;;;;15.98;72.43;98629.59;5176967;27;42641;-81
2023/09/20 04:32:45;;;;;;;1.50;1.00;;;;;;;15.97;71.96;98622.56;5173859;27;43143;-81
2023/09/20 04:35:20;;;;;;;1.20;1.10;;;;;;;15.86;72.00;98609.31;5174521;27;40166;-81
2023/09/20 04:37:47;;;;;;;1.37;0.93;;;;;;;15.92;72.30;98619.47;5159537;27;40951;-81
2023/09/20 04:40:15;;;;;;;1.67;1.10;;;;;;;15.92;72.26;98624.81;5176622;27;42925;-81
2023/09/20 04:42:43;;;;;;;1.33;0.90;;;;;;;15.94;72.20;98633.53;5175465;27;42795;-81
2023/09/20 04:45:12;;;;;;;1.13;1.03;;;;;;;15.94;71.61;98627.34;5157618;27;38956;-81
2023/09/20 04:47:42;;;;;;;0.80;0.80;;;;;;;15.89;71.75;98622.41;5175705;27;42243;-81
2023/09/20 04:50:12;;;;;;;0.97;0.90;;;;;;;15.79;71.48;98610.84;5158431;27;41707;-80
2023/09/20 04:52:41;;;;;;;1.50;1.07;;;;;;;15.88;71.77;98625.19;5178915;27;43028;-80
2023/09/20 04:55:10;;;;;;;1.07;0.87;;;;;;;15.81;72.15;98616.88;5176510;27;40899;-81
2023/09/20 04:57:38;;;;;;;1.83;1.30;;;;;;;15.88;72.51;98628.72;5158008;27;40990;-82
2023/09/20 05:00:07;;;;;;;0.97;0.90;;;;;;;15.92;72.20;98626.63;5157381;27;41883;-82
2023/09/20 05:02:35;;;;;;;1.23;1.00;;;;;;;15.91;72.66;98620.44;5157668;27;41149;-81
2023/09/20 05:05:05;;;;;;;3.13;1.10;;;;;;;15.99;72.68;98625.94;5157890;27;38920;-81
2023/09/20 05:07:34;;;;;;;2.30;1.13;;;;;;;15.88;72.36;98604.69;5175318;27;40581;-81
2023/09/20 05:10:02;;;;;;;2.03;1.23;;;;;;;16.06;72.57;98624.44;5174890;27;42855;-82
2023/09/20 05:12:31;;;;;;;1.60;1.20;;;;;;;16.11;72.66;98629.34;5175495;27;42400;-81
2023/09/20 05:14:59;;;;;;;1.47;1.30;;;;;;;16.10;72.05;98623.16;5158581;27;38915;-80
2023/09/20 05:17:27;;;;;;;1.30;1.03;;;;;;;16.19;72.27;98626.00;5158492;27;40927;-81
2023/09/20 05:19:54;;;;;;;2.90;1.10;;;;;;;16.24;71.91;98634.44;5158195;27;42738;-81
2023/09/20 05:22:24;;;;;;;1.83;1.30;;;;;;;16.28;71.70;98627.84;5175886;27;43648;-81
2023/09/20 05:24:52;;;;;;;1.27;1.03;;;;;;;16.32;71.44;98629.28;5158126;27;38884;-80
2023/09/20 05:27:20;;;;;;;2.07;1.30;;;;;;;16.35;71.57;98637.00;5158373;27;40764;-82
2023/09/20 05:29:50;;;;;;;1.20;1.10;;;;;;;16.38;71.61;98634.06;5175619;27;42986;-81
2023/09/20 05:32:18;;;;;;;1.30;1.00;;;;;;;16.36;70.96;98617.31;5158457;27;41381;-80
2023/09/20 05:34:46;;;;;;;1.77;1.23;;;;;;;16.49;70.73;98629.44;5176893;27;40176;-81
2023/09/20 05:37:13;;;;;;;2.43;0.97;;;;;;;16.61;70.43;98632.81;5175938;27;41840;-80
2023/09/20 05:39:47;;;;;;;1.17;1.00;;;;;;;16.70;70.41;98647.22;5156335;27;41794;-80
2023/09/20 05:42:15;;;;;;;1.27;1.03;;;;;;;16.75;69.86;98643.16;5156910;27;41530;-81
2023/09/20 05:44:42;;;;;;;1.33;1.00;;;;;;;16.80;70.05;98642.75;5156529;27;38984;-80
2023/09/20 05:47:10;;;;;;;1.40;1.30;;;;;;;16.83;70.06;98647.78;5174906;27;42314;-82
2023/09/20 05:49:38;;;;;;;1.63;1.40;;;;;;;16.77;69.92;98638.50;5163519;27;42744;-83
2023/09/20 05:52:06;;;;;;;1.23;1.07;;;;;;;16.75;69.68;98635.13;5145995;27;42267;-81
2023/09/20 05:54:33;;;;;;;1.93;1.43;;;;;;;16.84;69.49;98638.78;5154194;27;40827;-83
2023/09/20 05:57:03;;;;;;;1.10;1.00;;;;;;;16.70;69.66;98599.94;5153216;27;41653;-84
2023/09/20 05:59:31;;;;;;;1.87;1.13;;;;;;;16.99;69.58;98641.88;5152554;27;42738;-82
2023/09/20 06:01:58;;;;;;;2.57;0.97;;;;;;;17.02;69.31;98641.59;5132435;27;42347;-82
2023/09/20 06:04:26;;;;;;;2.57;1.17;;;;;;;17.02;69.09;98641.59;5115202;27;40076;-82
2023/09/20 06:06:54;;;;;;;0.90;0.90;;;;;;;17.01;69.21;98639.91;5169815;27;40882;-82
2023/09/20 06:09:21;;;;;;;1.60;1.30;;;;;;;17.03;68.73;98636.13;5173884;27;43156;-82
2023/09/20 06:11:50;;;;;;;3.73;1.00;;;;;;;17.16;68.86;98646.53;5139564;27;41642;-83
2023/09/20 06:14:19;;;;;;;2.50;1.20;;;;;;;17.26;68.58;98643.84;5147050;27;40143;-82
2023/09/20 06:16:46;;;;;;;1.73;1.50;;;;;;;17.40;67.86;98644.25;5129070;27;40974;-82
2023/09/20 06:19:14;;;;;;;1.20;1.10;;;;;;;17.69;67.82;98651.38;5153788;27;42105;-82
2023/09/20 06:21:43;;;;;;;1.20;1.10;;;;;;;17.85;67.20;98640.88;5141132;27;43055;-83
2023/09/20 06:24:11;;;;;;;1.50;1.23;;;;;;;18.05;66.71;98637.13;5151982;27;39991;-83
2023/09/20 06:26:40;;;;;;;2.60;1.40;;;;;;;18.23;66.13;98634.50;5142411;27;40584;-84
2023/09/20 06:29:09;;;;;;;1.70;1.43;;;;;;;18.38;65.57;98659.81;5129000;27;41478;-82
2023/09/20 06:31:38;;;;;;;2.00;1.33;;;;;;;18.36;65.66;98650.25;5138397;27;42535;-83
2023/09/20 06:34:06;;;;;;;1.30;1.00;;;;;;;18.25;65.54;98644.09;5132669;27;40366;-84
2023/09/20 06:36:33;;;;;;;2.57;1.10;;;;;;;18.32;64.94;98655.06;5152011;27;41696;-84
2023/09/20 06:39:01;;;;;;;2.00;1.13;;;;;;;18.28;65.37;98656.38;5145315;27;43101;-80
2023/09/20 06:41:28;;;;;;;1.53;1.17;;;;;;;18.15;65.25;98637.09;5152313;27;42126;-80
2023/09/20 06:43:58;;;;;;;1.43;1.00;;;;;;;18.21;65.17;98657.94;5151460;27;40941;-85
2023/09/20 06:46:25;;;;;;;2.87;1.40;;;;;;;18.08;65.39;98639.53;5134485;27;40689;-89
2023/09/20 06:48:57;;;;;;;0.93;0.93;;;;;;;18.13;65.40;98657.84;5151962;27;41704;-85
2023/09/20 06:51:25;;;;;;;1.60;1.00;;;;;;;18.15;65.34;98664.75;5150563;27;42347;-83
2023/09/20 06:53:52;;;;;;;1.27;1.07;;;;;;;18.18;65.35;98664.44;5151537;27;39942;-83
2023/09/20 06:56:20;;;;;;;1.63;1.20;;;;;;;18.13;65.21;98650.66;5133385;27;40817;-83
2023/09/20 06:58:48;;;;;;;1.67;1.37;;;;;;;18.24;64.73;98647.78;5151493;27;42659;-84
2023/09/20 07:01:17;;;;;;;1.43;1.20;;;;;;;19.50;62.82;98669.19;5144122;27;20231;-82
2023/09/20 07:03:45;;;;;;;2.07;1.27;;;;;;;21.85;56.64;98699.53;5173077;27;39613;-85
2023/09/20 07:06:14;;;;;;;1.50;1.30;;;;;;;24.19;50.60;98719.09;5140354;27;41453;-85
2023/09/20 07:08:45;;;;;;;1.80;1.23;;;;;;;25.80;46.58;98709.78;5097780;27;43195;-87
2023/09/20 07:11:16;;;;;;;1.73;1.13;;;;;;;27.00;43.62;98717.59;5124971;27;41255;-85
2023/09/20 07:13:43;;;;;;;1.37;1.27;;;;;;;28.27;41.21;98745.63;5174077;27;39385;-88
2023/09/20 07:16:11;;;;;;;1.57;1.10;;;;;;;28.26;41.50;98756.72;5145912;27;42472;-86
2023/09/20 07:18:44;;;;;;;1.87;1.20;;;;;;;27.97;41.45;98752.53;5115259;27;41846;-85
2023/09/20 07:21:11;;;;;;;1.20;1.10;;;;;;;27.21;42.37;98747.34;5138262;27;42097;-87
2023/09/20 07:23:41;;;;;;;1.37;1.27;;;;;;;26.47;43.18;98734.47;5175326;27;40964;-84
2023/09/20 07:26:08;;;;;;;1.17;1.07;;;;;;;25.96;44.02;98725.78;5156268;27;41819;-85
2023/09/20 07:28:37;;;;;;;1.33;1.20;;;;;;;25.39;44.41;98729.38;5173630;27;41863;-81
2023/09/20 07:31:06;;;;;;;1.93;1.03;;;;;;;24.73;45.82;98679.00;5174248;27;42429;-84
2023/09/20 07:33:33;;;;;;;1.47;1.30;;;;;;;24.84;46.41;98696.66;5115583;27;38974;-87
2023/09/20 07:36:01;;;;;;;1.40;1.30;;;;;;;25.53;45.22;98702.41;5111451;27;40491;-86
2023/09/20 07:38:29;;;;;;;1.20;1.10;;;;;;;25.97;44.62;98703.00;5130153;27;42070;-87
2023/09/20 07:41:08;;;;;;;1.07;1.00;;;;;;;27.41;42.86;98723.78;5113264;27;41872;-86
2023/09/20 07:43:37;;;;;;;1.60;1.50;;;;;;;28.49;40.59;98733.44;5148431;27;40380;-84
2023/09/20 07:46:06;;;;;;;1.43;1.10;;;;;;;29.04;40.03;98741.25;5154965;27;40573;-82
2023/09/20 07:48:37;;;;;;;1.47;1.30;;;;;;;29.09;39.97;98744.13;5140028;27;43257;-83
2023/09/20 07:51:10;;;;;;;2.83;1.20;;;;;;;28.89;38.68;98725.16;5130353;27;42730;-79
2023/09/20 07:53:37;;;;;;;2.30;1.20;;;;;;;28.74;38.59;98717.22;5159471;27;40223;-84
2023/09/20 07:56:11;;;;;;;1.13;1.03;;;;;;;28.48;38.51;98733.63;5172050;27;41818;-83
2023/09/20 07:58:40;;;;;;;1.47;1.27;;;;;;;27.96;39.50;98729.91;5141687;27;43008;-81
2023/09/20 08:01:10;;;;;;;2.07;1.10;;;;;;;27.52;40.70;98706.00;5129877;27;42321;-82
2023/09/20 08:03:38;;;;;;;1.37;1.23;;;;;;;27.30;40.44;98721.69;5116427;27;39001;-88
2023/09/20 08:06:08;;;;;;;1.40;1.10;;;;;;;27.05;40.95;98715.13;5133967;27;42776;-88
2023/09/20 08:08:36;;;;;;;2.10;1.00;;;;;;;26.71;41.42;98699.69;5144819;27;42757;-86
2023/09/20 08:11:04;;;;;;;1.50;1.33;;;;;;;27.01;41.99;98701.09;5152800;27;42454;-86
2023/09/20 08:13:33;;;;;;;0.90;0.90;;;;;;;27.15;41.54;98710.13;5139367;27;39276;-84
2023/09/20 08:16:02;;;;;;;1.83;1.23;;;;;;;27.43;40.46;98697.22;5177454;27;41827;-85
2023/09/20 08:21:15;;;;;;;1.20;1.10;;;;;;;28.33;40.27;98719.41;5116403;27;41739;-78
2023/09/20 08:59:52;;;;;;;1.02;1.02;;;;;;;41.15;21.21;98752.97;5153405;27;40638;-84
2023/09/20 09:02:23;;;;;;;1.90;1.10;;;;;;;40.26;22.96;98739.72;5136471;27;42098;-89
2023/09/20 09:04:53;;;;;;;2.25;1.00;;;;;;;40.09;22.67;98746.53;5153567;27;42107;-85
2023/09/20 09:07:22;;;;;;;1.25;0.93;;;;;;;39.52;23.38;98729.75;5136122;27;39513;-82
2023/09/20 09:09:50;;;;;;;2.33;1.20;;;;;;;37.95;24.73;98701.41;5153057;27;41990;-86
2023/09/20 09:12:18;;;;;;;1.48;1.20;;;;;;;36.72;25.26;98711.59;5154965;27;43350;-85
2023/09/20 09:14:48;;;;;;;0.80;0.80;;;;;;;35.93;26.47;98710.47;5136194;27;42223;-85
2023/09/20 09:17:16;;;;;;;1.80;0.90;;;;;;;35.59;27.48;98692.50;5154305;27;39373;-85
2023/09/20 09:19:45;;;;;;;2.30;1.27;;;;;;;35.32;26.98;98683.44;5137102;27;41071;-84
2023/09/20 09:22:15;;;;;;;1.37;1.13;;;;;;;34.70;26.85;98678.25;5154453;27;42941;-86
2023/09/20 09:24:44;;;;;;;1.50;1.07;;;;;;;34.26;27.85;98694.72;5136996;27;41677;-82
2023/09/20 09:27:14;;;;;;;1.67;1.00;;;;;;;34.22;28.38;98666.06;5136882;27;39409;-85
2023/09/20 09:29:43;;;;;;;1.83;1.10;;;;;;;34.53;27.79;98683.81;5136418;27;41057;-81
2023/09/20 09:32:10;;;;;;;1.80;1.27;;;;;;;34.78;27.46;98675.09;5153626;27;42820;-81
2023/09/20 09:34:38;;;;;;;1.93;1.10;;;;;;;34.92;27.21;98690.13;5153926;27;42043;-83
2023/09/20 09:37:07;;;;;;;1.00;0.90;;;;;;;34.47;28.06;98680.19;5135892;27;40257;-81
2023/09/20 09:39:36;;;;;;;3.00;1.10;;;;;;;33.93;28.58;98679.06;5153533;27;40918;-81
2023/09/20 09:42:04;;;;;;;1.93;1.27;;;;;;;33.63;29.18;98673.88;5155031;27;43814;-82
2023/09/20 09:44:48;;;;;;;2.00;1.10;;;;;;;33.81;28.76;98668.19;5154079;27;42417;-86
2023/09/20 09:47:17;;;;;;;2.40;1.17;;;;;;;33.82;28.84;98656.09;5148859;27;40082;-82
2023/09/20 09:49:46;;;;;;;2.10;1.10;;;;;;;33.91;28.79;98647.44;5134903;27;41901;-84
2023/09/20 09:52:16;;;;;;;1.97;1.10;;;;;;;33.75;28.44;98658.19;5152803;27;42652;-89
2023/09/20 09:54:44;;;;;;;1.23;1.13;;;;;;;33.40;28.71;98663.03;5135393;27;41269;-85
2023/09/20 09:57:12;;;;;;;4.60;1.50;;;;;;;33.02;29.90;98645.28;5135065;27;40024;-86
2023/09/20 09:59:40;;;;;;;1.30;1.10;;;;;;;33.04;29.92;98659.63;5151856;27;40549;-83
2023/09/20 10:02:17;;;;;;;1.57;1.23;;;;;;;32.95;29.53;98611.69;5151931;27;41870;-82
2023/09/20 10:04:48;;;;;;;1.43;1.23;;;;;;;34.59;28.10;98658.88;5152396;27;42006;-82
2023/09/20 10:07:19;;;;;;;1.20;1.10;;;;;;;36.49;26.12;98652.09;5152178;27;40163;-86
2023/09/20 10:09:50;;;;;;;1.13;1.03;;;;;;;37.73;24.96;98667.66;5152088;27;41186;-89
2023/09/20 10:12:19;;;;;;;1.60;1.20;;;;;;;37.45;24.29;98665.44;5135295;27;43162;-84
2023/09/20 10:14:47;;;;;;;1.92;0.80;;;;;;;37.59;24.57;98675.66;5136368;27;41129;-84
2023/09/20 10:17:17;;;;;;;0.82;0.82;;;;;;;38.31;23.74;98684.78;5136497;27;39381;-85
2023/09/20 10:19:44;;;;;;;1.02;0.93;;;;;;;39.42;22.59;98689.09;5136223;27;40950;-88
2023/09/20 10:22:13;;;;;;;1.10;1.00;;;;;;;41.28;20.72;98693.03;5135898;27;41912;-86
2023/09/20 10:24:50;;;;;;;1.13;0.85;;;;;;;42.73;19.90;98695.56;5135418;27;41439;-83
2023/09/20 10:27:19;;;;;;;1.52;1.23;;;;;;;43.76;19.04;98695.00;5153093;27;38759;-83
2023/09/20 10:30:02;;;;;;;0.82;0.80;;;;;;;43.48;18.82;98705.41;5153069;27;42594;-80
2023/09/20 10:32:32;;;;;;;1.60;1.00;;;;;;;42.82;19.28;98704.03;5148116;27;41997;-84
2023/09/20 10:35:20;;;;;;;1.17;1.08;;;;;;;42.23;19.35;98698.19;5129652;27;42208;-86
2023/09/20 10:37:59;;;;;;;1.00;0.90;;;;;;;41.70;19.38;98694.06;5133871;27;40914;-84
2023/09/20 10:41:03;;;;;;;1.23;1.00;;;;;;;41.78;19.16;98701.75;5151536;27;43705;-82
2023/09/20 10:43:51;;;;;;;0.90;0.90;;;;;;;41.86;20.25;98667.66;5133912;27;41377;-84
2023/09/20 10:46:22;;;;;;;1.42;0.90;;;;;;;41.63;20.16;98671.38;5134051;27;40837;-81
2023/09/20 10:48:51;;;;;;;0.85;0.85;;;;;;;41.32;20.57;98655.16;5151612;27;39086;-84
2023/09/20 10:51:41;;;;;;;1.15;1.05;;;;;;;41.99;20.36;98664.13;5151229;27;40767;-82
2023/09/20 10:54:19;;;;;;;1.08;0.98;;;;;;;43.16;19.17;98670.13;5133623;27;41839;-81
2023/09/20 10:57:02;;;;;;;0.80;0.80;;;;;;;43.34;19.32;98666.41;5150759;27;42137;-81
2023/09/20 10:59:31;;;;;;;1.10;1.00;;;;;;;43.49;19.11;98662.44;5151378;27;41448;-82
2023/09/20 11:02:05;;;;;;;1.25;1.10;;;;;;;43.72;19.21;98652.13;5151377;27;40497;-82
2023/09/20 11:04:34;;;;;;;1.20;1.10;;;;;;;43.65;19.02;98656.16;5150907;27;42579;-81
2023/09/20 11:07:02;;;;;;;1.08;0.90;;;;;;;44.16;19.10;98654.88;5133615;27;44137;-85
2023/09/20 11:09:33;;;;;;;1.50;1.40;;;;;;;44.67;19.03;98636.69;5152327;27;40462;-83
2023/09/20 11:12:08;;;;;;;1.30;1.20;;;;;;;45.49;17.70;98647.03;5151242;27;41097;-84
2023/09/20 11:14:36;;;;;;;1.00;0.88;;;;;;;46.28;17.06;98655.00;5134941;27;43101;-85
2023/09/20 11:17:05;;;;;;;1.30;1.20;;;;;;;45.75;16.96;98645.03;5152301;27;42703;-84
2023/09/20 11:19:34;;;;;;;0.90;0.90;;;;;;;45.00;17.40;98639.94;5134767;27;38838;-86
2023/09/20 11:22:03;;;;;;;2.20;1.08;;;;;;;45.97;17.72;98613.25;5138320;27;40956;-85
2023/09/20 11:24:32;;;;;;;2.20;1.30;;;;;;;47.71;16.48;98605.41;5158751;27;43435;-83
2023/09/20 11:27:00;;;;;;;1.15;1.08;;;;;;;48.59;15.71;98635.81;5153561;27;42156;-84
2023/09/20 11:29:29;;;;;;;1.23;0.88;;;;;;;47.35;15.59;98632.13;5151876;27;40333;-86
2023/09/20 11:31:58;;;;;;;1.60;1.42;;;;;;;45.85;15.73;98634.66;5132907;27;41027;-83
2023/09/20 11:34:28;;;;;;;1.05;0.95;;;;;;;45.06;16.89;98622.66;5151080;27;42799;-86
2023/09/20 11:36:57;;;;;;;1.20;1.10;;;;;;;46.02;16.64;98599.06;5135495;27;40878;-85
2023/09/20 11:39:30;;;;;;;1.95;1.30;;;;;;;47.67;15.27;98629.72;5137273;27;39110;-83
2023/09/20 11:42:01;;;;;;;0.98;0.98;;;;;;;48.91;13.88;98634.03;5154583;27;41811;-83
2023/09/20 11:44:34;;;;;;;1.30;1.20;;;;;;;49.85;13.55;98617.53;5155113;27;42554;-83
2023/09/20 11:47:03;;;;;;;1.30;1.20;;;;;;;50.59;13.21;98604.59;5154072;27;42622;-83
2023/09/20 11:49:30;;;;;;;1.30;1.20;;;;;;;51.20;13.02;98609.59;5154298;27;40118;-85
2023/09/20 11:51:59;;;;;;;1.60;1.50;;;;;;;51.62;12.90;98603.28;5154870;27;42455;-87
2023/09/20 11:54:29;;;;;;;1.42;1.15;;;;;;;52.10;12.34;98595.28;5137851;27;41654;-89
2023/09/20 11:57:00;;;;;;;1.27;1.17;;;;;;;52.50;11.75;98601.25;5136634;27;42423;-85
2023/09/20 11:59:28;;;;;;;1.58;1.48;;;;;;;52.35;11.99;98593.72;5137110;27;40266;-86
2023/09/20 12:01:57;;;;;;;1.40;1.30;;;;;;;52.36;11.72;98601.00;5155304;27;42298;-87
2023/09/20 12:04:25;;;;;;;1.90;1.70;;;;;;;52.45;11.45;98598.72;5158058;27;41841;-85
2023/09/20 12:06:56;;;;;;;1.70;1.60;;;;;;;52.67;11.31;98592.25;5141110;27;41237;-84
2023/09/20 12:09:24;;;;;;;1.85;1.60;;;;;;;52.88;11.66;98569.13;5133476;27;40697;-86
2023/09/20 12:11:51;;;;;;;1.65;1.55;;;;;;;53.10;11.22;98576.69;5132825;27;42676;-88
2023/09/20 12:14:19;;;;;;;1.52;1.42;;;;;;;53.28;11.15;98578.97;5117080;27;41724;-82
2023/09/20 12:16:48;;;;;;;1.33;1.23;;;;;;;53.09;11.59;98580.72;5159099;27;41639;-81
2023/09/20 12:19:18;;;;;;;1.55;1.45;;;;;;;52.93;11.58;98567.94;5175768;27;40957;-81
2023/09/20 12:21:47;;;;;;;1.55;1.20;;;;;;;52.57;11.68;98569.44;5152390;27;41976;-80
2023/09/20 12:24:15;;;;;;;1.52;1.42;;;;;;;52.27;11.83;98549.59;5135347;27;42779;-84